sensor_id;sensor_type;location;lat;lon;timestamp;temperature;humidity
4366;DHT22;2196;47.422;9.656;2023-04-25T00:02:26;8.40;99.90
4366;DHT22;2196;47.422;9.656;2023-04-25T00:04:53;8.40;99.90
4366;DHT22;2196;47.422;9.656;2023-04-25T00:07:25;8.40;99.90
4366;DHT22;2196;47.422;9.656;2023-04-25T00:09:52;8.40;99.90
4366;DHT22;2196;47.422;9.656;2023-04-25T00:12:21;8.30;99.90
4366;DHT22;2196;47.422;9.656;2023-04-25T00:14:49;8.40;99.90
4366;DHT22;2196;47.422;9.656;2023-04-25T00:17:17;8.30;99.90
4366;DHT22;2196;47.422;9.656;2023-04-25T00:19:47;8.40;99.90
4366;DHT22;2196;47.422;9.656;2023-04-25T00:22:15;8.40;99.90
4366;DHT22;2196;47.422;9.656;2023-04-25T00:24:44;8.40;99.90
4366;DHT22;2196;47.422;9.656;2023-04-25T00:27:11;8.40;99.90
4366;DHT22;2196;47.422;9.656;2023-04-25T00:29:38;8.40;99.90
4366;DHT22;2196;47.422;9.656;2023-04-25T00:32:05;8.40;99.90
4366;DHT22;2196;47.422;9.656;2023-04-25T00:34:32;8.40;99.90
4366;DHT22;2196;47.422;9.656;2023-04-25T00:37:00;8.50;99.90
4366;DHT22;2196;47.422;9.656;2023-04-25T00:39:28;8.50;99.90
4366;DHT22;2196;47.422;9.656;2023-04-25T00:41:56;8.60;99.90
4366;DHT22;2196;47.422;9.656;2023-04-25T00:44:24;8.60;99.90
4366;DHT22;2196;47.422;9.656;2023-04-25T00:46:52;8.50;99.90
4366;DHT22;2196;47.422;9.656;2023-04-25T00:49:20;8.60;99.90
4366;DHT22;2196;47.422;9.656;2023-04-25T00:51:48;8.60;99.90
4366;DHT22;2196;47.422;9.656;2023-04-25T00:54:15;8.60;99.90
4366;DHT22;2196;47.422;9.656;2023-04-25T00:56:43;8.60;99.90
4366;DHT22;2196;47.422;9.656;2023-04-25T00:59:12;8.50;99.90
4366;DHT22;2196;47.422;9.656;2023-04-25T01:01:39;8.50;99.90
4366;DHT22;2196;47.422;9.656;2023-04-25T01:04:08;8.60;99.90
4366;DHT22;2196;47.422;9.656;2023-04-25T01:06:35;8.60;99.90
4366;DHT22;2196;47.422;9.656;2023-04-25T01:09:02;8.60;99.90
4366;DHT22;2196;47.422;9.656;2023-04-25T01:11:30;8.50;99.90
4366;DHT22;2196;47.422;9.656;2023-04-25T01:13:57;8.50;99.90
4366;DHT22;2196;47.422;9.656;2023-04-25T01:16:26;8.50;99.90
4366;DHT22;2196;47.422;9.656;2023-04-25T01:18:53;8.40;99.90
4366;DHT22;2196;47.422;9.656;2023-04-25T01:21:22;8.40;99.90
4366;DHT22;2196;47.422;9.656;2023-04-25T01:23:52;8.30;99.90
4366;DHT22;2196;47.422;9.656;2023-04-25T01:26:19;8.30;99.90
4366;DHT22;2196;47.422;9.656;2023-04-25T01:28:48;8.30;99.90
4366;DHT22;2196;47.422;9.656;2023-04-25T01:31:16;8.30;99.90
4366;DHT22;2196;47.422;9.656;2023-04-25T01:33:43;8.30;99.90
4366;DHT22;2196;47.422;9.656;2023-04-25T01:36:10;8.40;99.90
4366;DHT22;2196;47.422;9.656;2023-04-25T01:38:39;8.40;99.90
4366;DHT22;2196;47.422;9.656;2023-04-25T01:41:06;8.40;99.90
4366;DHT22;2196;47.422;9.656;2023-04-25T01:43:34;8.30;99.90
4366;DHT22;2196;47.422;9.656;2023-04-25T01:46:01;8.30;99.90
4366;DHT22;2196;47.422;9.656;2023-04-25T01:48:28;8.40;99.90
4366;DHT22;2196;47.422;9.656;2023-04-25T01:50:55;8.40;99.90
4366;DHT22;2196;47.422;9.656;2023-04-25T01:53:22;8.30;99.90
4366;DHT22;2196;47.422;9.656;2023-04-25T01:55:50;8.30;99.90
4366;DHT22;2196;47.422;9.656;2023-04-25T01:58:17;8.30;99.90
4366;DHT22;2196;47.422;9.656;2023-04-25T02:00:44;8.30;99.90
4366;DHT22;2196;47.422;9.656;2023-04-25T02:03:12;8.30;99.90
4366;DHT22;2196;47.422;9.656;2023-04-25T02:05:40;8.40;99.90
4366;DHT22;2196;47.422;9.656;2023-04-25T02:08:08;8.40;99.90
4366;DHT22;2196;47.422;9.656;2023-04-25T02:10:36;8.40;99.90
4366;DHT22;2196;47.422;9.656;2023-04-25T02:13:04;8.40;99.90
4366;DHT22;2196;47.422;9.656;2023-04-25T02:15:31;8.40;99.90
4366;DHT22;2196;47.422;9.656;2023-04-25T02:17:58;8.40;99.90
4366;DHT22;2196;47.422;9.656;2023-04-25T02:20:29;8.30;99.90
4366;DHT22;2196;47.422;9.656;2023-04-25T02:22:57;8.30;99.90
4366;DHT22;2196;47.422;9.656;2023-04-25T02:25:24;8.30;99.90
4366;DHT22;2196;47.422;9.656;2023-04-25T02:27:51;8.30;99.90
4366;DHT22;2196;47.422;9.656;2023-04-25T02:30:19;8.30;99.90
4366;DHT22;2196;47.422;9.656;2023-04-25T02:32:46;8.30;99.90
4366;DHT22;2196;47.422;9.656;2023-04-25T02:35:13;8.40;99.90
4366;DHT22;2196;47.422;9.656;2023-04-25T02:37:42;8.30;99.90
4366;DHT22;2196;47.422;9.656;2023-04-25T02:40:10;8.20;99.90
4366;DHT22;2196;47.422;9.656;2023-04-25T02:42:37;8.20;99.90
4366;DHT22;2196;47.422;9.656;2023-04-25T02:45:04;8.20;99.90
4366;DHT22;2196;47.422;9.656;2023-04-25T02:47:33;8.20;99.90
4366;DHT22;2196;47.422;9.656;2023-04-25T02:50:00;8.20;99.90
4366;DHT22;2196;47.422;9.656;2023-04-25T02:52:27;8.20;99.90
4366;DHT22;2196;47.422;9.656;2023-04-25T02:54:54;8.20;99.90
4366;DHT22;2196;47.422;9.656;2023-04-25T02:57:23;8.20;99.90
4366;DHT22;2196;47.422;9.656;2023-04-25T02:59:50;8.20;99.90
4366;DHT22;2196;47.422;9.656;2023-04-25T03:02:17;8.20;99.90
4366;DHT22;2196;47.422;9.656;2023-04-25T03:04:45;8.20;99.90
4366;DHT22;2196;47.422;9.656;2023-04-25T03:07:13;8.30;99.90
4366;DHT22;2196;47.422;9.656;2023-04-25T03:09:40;8.20;99.90
4366;DHT22;2196;47.422;9.656;2023-04-25T03:12:07;8.30;99.90
4366;DHT22;2196;47.422;9.656;2023-04-25T03:14:34;8.20;99.90
4366;DHT22;2196;47.422;9.656;2023-04-25T03:17:01;8.30;99.90
4366;DHT22;2196;47.422;9.656;2023-04-25T03:19:28;8.30;99.90
4366;DHT22;2196;47.422;9.656;2023-04-25T03:21:56;8.30;99.90
4366;DHT22;2196;47.422;9.656;2023-04-25T03:24:23;8.30;99.90
4366;DHT22;2196;47.422;9.656;2023-04-25T03:26:50;8.30;99.90
4366;DHT22;2196;47.422;9.656;2023-04-25T03:29:17;8.30;99.90
4366;DHT22;2196;47.422;9.656;2023-04-25T03:31:44;8.30;99.90
4366;DHT22;2196;47.422;9.656;2023-04-25T03:34:11;8.20;99.90
4366;DHT22;2196;47.422;9.656;2023-04-25T03:36:40;8.20;99.90
4366;DHT22;2196;47.422;9.656;2023-04-25T03:39:08;8.20;99.90
4366;DHT22;2196;47.422;9.656;2023-04-25T03:41:35;8.30;99.90
4366;DHT22;2196;47.422;9.656;2023-04-25T03:44:02;8.20;99.90
4366;DHT22;2196;47.422;9.656;2023-04-25T03:46:29;8.20;99.90
4366;DHT22;2196;47.422;9.656;2023-04-25T03:48:56;8.20;99.90
4366;DHT22;2196;47.422;9.656;2023-04-25T03:51:24;8.20;99.90
4366;DHT22;2196;47.422;9.656;2023-04-25T03:53:52;8.20;99.90
4366;DHT22;2196;47.422;9.656;2023-04-25T03:56:20;8.20;99.90
4366;DHT22;2196;47.422;9.656;2023-04-25T03:58:47;8.30;99.90
4366;DHT22;2196;47.422;9.656;2023-04-25T04:01:14;8.30;99.90
4366;DHT22;2196;47.422;9.656;2023-04-25T04:03:41;8.30;99.90
4366;DHT22;2196;47.422;9.656;2023-04-25T04:06:09;8.30;99.90
4366;DHT22;2196;47.422;9.656;2023-04-25T04:08:36;8.30;99.90
4366;DHT22;2196;47.422;9.656;2023-04-25T04:11:03;8.20;99.90
4366;DHT22;2196;47.422;9.656;2023-04-25T04:13:32;8.20;99.90
4366;DHT22;2196;47.422;9.656;2023-04-25T04:15:58;8.20;99.90
4366;DHT22;2196;47.422;9.656;2023-04-25T04:18:25;8.10;99.90
4366;DHT22;2196;47.422;9.656;2023-04-25T04:20:52;8.20;99.90
4366;DHT22;2196;47.422;9.656;2023-04-25T04:23:20;8.10;99.90
4366;DHT22;2196;47.422;9.656;2023-04-25T04:25:48;8.10;99.90
4366;DHT22;2196;47.422;9.656;2023-04-25T04:28:15;8.10;99.90
4366;DHT22;2196;47.422;9.656;2023-04-25T04:30:44;8.10;99.90
4366;DHT22;2196;47.422;9.656;2023-04-25T04:33:12;8.10;99.90
4366;DHT22;2196;47.422;9.656;2023-04-25T04:35:41;8.10;99.90
4366;DHT22;2196;47.422;9.656;2023-04-25T04:38:08;8.10;99.90
4366;DHT22;2196;47.422;9.656;2023-04-25T04:40:36;8.10;99.90
4366;DHT22;2196;47.422;9.656;2023-04-25T04:43:03;8.10;99.90
4366;DHT22;2196;47.422;9.656;2023-04-25T04:45:31;8.10;99.90
4366;DHT22;2196;47.422;9.656;2023-04-25T04:48:00;8.20;99.90
4366;DHT22;2196;47.422;9.656;2023-04-25T04:50:27;8.20;99.90
4366;DHT22;2196;47.422;9.656;2023-04-25T04:52:54;8.20;99.90
4366;DHT22;2196;47.422;9.656;2023-04-25T04:55:21;8.20;99.90
4366;DHT22;2196;47.422;9.656;2023-04-25T04:57:48;8.30;99.90
4366;DHT22;2196;47.422;9.656;2023-04-25T05:00:15;8.30;99.90
4366;DHT22;2196;47.422;9.656;2023-04-25T05:02:43;8.30;99.90
4366;DHT22;2196;47.422;9.656;2023-04-25T05:05:12;8.30;99.90
4366;DHT22;2196;47.422;9.656;2023-04-25T05:07:38;8.30;99.90
4366;DHT22;2196;47.422;9.656;2023-04-25T05:10:06;8.30;99.90
4366;DHT22;2196;47.422;9.656;2023-04-25T05:12:34;8.20;99.90
4366;DHT22;2196;47.422;9.656;2023-04-25T05:15:01;8.20;99.90
4366;DHT22;2196;47.422;9.656;2023-04-25T05:17:28;8.20;99.90
4366;DHT22;2196;47.422;9.656;2023-04-25T05:19:55;8.20;99.90
4366;DHT22;2196;47.422;9.656;2023-04-25T05:22:25;8.30;99.90
4366;DHT22;2196;47.422;9.656;2023-04-25T05:24:53;8.30;99.90
4366;DHT22;2196;47.422;9.656;2023-04-25T05:27:20;8.40;99.90
4366;DHT22;2196;47.422;9.656;2023-04-25T05:29:50;8.40;99.90
4366;DHT22;2196;47.422;9.656;2023-04-25T05:32:18;8.50;99.90
4366;DHT22;2196;47.422;9.656;2023-04-25T05:34:45;8.50;99.90
4366;DHT22;2196;47.422;9.656;2023-04-25T05:37:12;8.50;99.90
4366;DHT22;2196;47.422;9.656;2023-04-25T05:39:41;8.50;99.90
4366;DHT22;2196;47.422;9.656;2023-04-25T05:42:08;8.70;99.90
4366;DHT22;2196;47.422;9.656;2023-04-25T05:44:36;8.70;99.90
4366;DHT22;2196;47.422;9.656;2023-04-25T05:47:03;8.80;99.90
4366;DHT22;2196;47.422;9.656;2023-04-25T05:49:30;8.90;99.90
4366;DHT22;2196;47.422;9.656;2023-04-25T05:51:57;9.10;99.90
4366;DHT22;2196;47.422;9.656;2023-04-25T05:54:24;9.20;99.90
4366;DHT22;2196;47.422;9.656;2023-04-25T05:56:53;9.40;99.90
4366;DHT22;2196;47.422;9.656;2023-04-25T05:59:21;9.40;99.90
4366;DHT22;2196;47.422;9.656;2023-04-25T06:01:54;9.50;99.90
4366;DHT22;2196;47.422;9.656;2023-04-25T06:04:21;10.20;99.90
4366;DHT22;2196;47.422;9.656;2023-04-25T06:06:48;10.50;99.90
4366;DHT22;2196;47.422;9.656;2023-04-25T06:09:15;10.70;99.90
4366;DHT22;2196;47.422;9.656;2023-04-25T06:11:42;10.90;99.90
4366;DHT22;2196;47.422;9.656;2023-04-25T06:14:10;11.40;99.90
4366;DHT22;2196;47.422;9.656;2023-04-25T06:16:37;12.80;99.90
4366;DHT22;2196;47.422;9.656;2023-04-25T06:19:04;13.70;99.90
4366;DHT22;2196;47.422;9.656;2023-04-25T06:21:31;14.30;99.90
4366;DHT22;2196;47.422;9.656;2023-04-25T06:23:58;15.00;99.90
4366;DHT22;2196;47.422;9.656;2023-04-25T06:26:25;15.70;99.90
4366;DHT22;2196;47.422;9.656;2023-04-25T06:28:52;15.70;99.90
4366;DHT22;2196;47.422;9.656;2023-04-25T06:31:20;15.60;99.90
4366;DHT22;2196;47.422;9.656;2023-04-25T06:33:47;15.50;99.90
4366;DHT22;2196;47.422;9.656;2023-04-25T06:36:15;15.70;99.90
4366;DHT22;2196;47.422;9.656;2023-04-25T06:38:42;15.40;99.90
4366;DHT22;2196;47.422;9.656;2023-04-25T06:41:08;15.70;99.90
4366;DHT22;2196;47.422;9.656;2023-04-25T06:43:35;15.20;99.90
4366;DHT22;2196;47.422;9.656;2023-04-25T06:46:02;14.80;99.90
4366;DHT22;2196;47.422;9.656;2023-04-25T06:48:31;14.40;99.90
4366;DHT22;2196;47.422;9.656;2023-04-25T06:50:57;13.90;99.90
4366;DHT22;2196;47.422;9.656;2023-04-25T06:53:24;13.30;99.90
4366;DHT22;2196;47.422;9.656;2023-04-25T06:55:51;13.10;99.90
4366;DHT22;2196;47.422;9.656;2023-04-25T06:58:18;12.70;99.90
4366;DHT22;2196;47.422;9.656;2023-04-25T07:00:45;13.20;99.90
4366;DHT22;2196;47.422;9.656;2023-04-25T07:03:12;13.70;99.90
4366;DHT22;2196;47.422;9.656;2023-04-25T07:05:40;14.00;99.90
4366;DHT22;2196;47.422;9.656;2023-04-25T07:08:07;15.20;99.90
4366;DHT22;2196;47.422;9.656;2023-04-25T07:10:34;16.40;99.90
4366;DHT22;2196;47.422;9.656;2023-04-25T07:13:01;17.00;99.90
4366;DHT22;2196;47.422;9.656;2023-04-25T07:15:28;17.10;99.90
4366;DHT22;2196;47.422;9.656;2023-04-25T07:17:55;16.50;99.90
4366;DHT22;2196;47.422;9.656;2023-04-25T07:20:22;15.90;99.90
4366;DHT22;2196;47.422;9.656;2023-04-25T07:22:50;15.10;99.90
4366;DHT22;2196;47.422;9.656;2023-04-25T07:25:17;14.60;99.90
4366;DHT22;2196;47.422;9.656;2023-04-25T07:27:44;14.10;99.90
4366;DHT22;2196;47.422;9.656;2023-04-25T07:30:12;13.90;99.90
4366;DHT22;2196;47.422;9.656;2023-04-25T07:32:39;13.80;99.90
4366;DHT22;2196;47.422;9.656;2023-04-25T07:35:07;13.60;99.90
4366;DHT22;2196;47.422;9.656;2023-04-25T07:37:34;13.20;99.90
4366;DHT22;2196;47.422;9.656;2023-04-25T07:40:03;13.00;99.90
4366;DHT22;2196;47.422;9.656;2023-04-25T07:42:30;12.70;99.90
4366;DHT22;2196;47.422;9.656;2023-04-25T07:44:58;12.40;99.90
4366;DHT22;2196;47.422;9.656;2023-04-25T07:47:26;12.10;99.90
4366;DHT22;2196;47.422;9.656;2023-04-25T07:49:53;11.90;99.90
4366;DHT22;2196;47.422;9.656;2023-04-25T07:52:21;11.80;99.90
4366;DHT22;2196;47.422;9.656;2023-04-25T07:54:51;11.60;99.90
4366;DHT22;2196;47.422;9.656;2023-04-25T07:57:20;11.30;99.90
4366;DHT22;2196;47.422;9.656;2023-04-25T07:59:47;11.10;99.90
4366;DHT22;2196;47.422;9.656;2023-04-25T08:02:14;11.00;99.90
4366;DHT22;2196;47.422;9.656;2023-04-25T08:04:41;10.80;99.90
4366;DHT22;2196;47.422;9.656;2023-04-25T08:07:08;10.70;99.90
4366;DHT22;2196;47.422;9.656;2023-04-25T08:09:35;10.30;99.90
4366;DHT22;2196;47.422;9.656;2023-04-25T08:12:02;9.90;99.90
4366;DHT22;2196;47.422;9.656;2023-04-25T08:14:31;9.60;99.90
4366;DHT22;2196;47.422;9.656;2023-04-25T08:17:01;9.50;99.90
4366;DHT22;2196;47.422;9.656;2023-04-25T08:19:28;9.30;99.90
4366;DHT22;2196;47.422;9.656;2023-04-25T08:21:56;9.30;99.90
4366;DHT22;2196;47.422;9.656;2023-04-25T08:24:23;9.30;99.90
4366;DHT22;2196;47.422;9.656;2023-04-25T08:26:50;9.40;99.90
4366;DHT22;2196;47.422;9.656;2023-04-25T08:29:17;9.30;99.90
4366;DHT22;2196;47.422;9.656;2023-04-25T08:31:46;9.50;99.90
4366;DHT22;2196;47.422;9.656;2023-04-25T08:34:13;9.50;99.90
4366;DHT22;2196;47.422;9.656;2023-04-25T08:36:40;9.40;99.90
4366;DHT22;2196;47.422;9.656;2023-04-25T08:39:07;9.50;99.90
4366;DHT22;2196;47.422;9.656;2023-04-25T08:41:36;9.40;99.90
4366;DHT22;2196;47.422;9.656;2023-04-25T08:44:04;9.40;99.90
4366;DHT22;2196;47.422;9.656;2023-04-25T08:46:32;9.30;99.90
4366;DHT22;2196;47.422;9.656;2023-04-25T08:49:02;9.30;99.90
4366;DHT22;2196;47.422;9.656;2023-04-25T08:51:31;9.20;99.90
4366;DHT22;2196;47.422;9.656;2023-04-25T08:54:06;9.30;99.90
4366;DHT22;2196;47.422;9.656;2023-04-25T08:56:35;9.20;99.90
4366;DHT22;2196;47.422;9.656;2023-04-25T08:59:02;9.00;99.90
4366;DHT22;2196;47.422;9.656;2023-04-25T09:01:29;9.00;99.90
4366;DHT22;2196;47.422;9.656;2023-04-25T09:03:57;9.00;99.90
4366;DHT22;2196;47.422;9.656;2023-04-25T09:06:25;9.00;99.90
4366;DHT22;2196;47.422;9.656;2023-04-25T09:08:53;8.90;99.90
4366;DHT22;2196;47.422;9.656;2023-04-25T09:11:20;8.80;99.90
4366;DHT22;2196;47.422;9.656;2023-04-25T09:13:47;8.90;99.90
4366;DHT22;2196;47.422;9.656;2023-04-25T09:16:14;8.90;99.90
4366;DHT22;2196;47.422;9.656;2023-04-25T09:18:44;9.00;99.90
4366;DHT22;2196;47.422;9.656;2023-04-25T09:21:13;8.90;99.90
4366;DHT22;2196;47.422;9.656;2023-04-25T09:23:44;8.90;99.90
4366;DHT22;2196;47.422;9.656;2023-04-25T09:26:15;9.00;99.90
4366;DHT22;2196;47.422;9.656;2023-04-25T09:28:42;9.00;99.90
4366;DHT22;2196;47.422;9.656;2023-04-25T09:31:10;9.10;99.90
4366;DHT22;2196;47.422;9.656;2023-04-25T09:33:37;9.40;99.90
4366;DHT22;2196;47.422;9.656;2023-04-25T09:36:05;9.60;99.90
4366;DHT22;2196;47.422;9.656;2023-04-25T09:38:40;9.50;99.90
4366;DHT22;2196;47.422;9.656;2023-04-25T09:41:08;9.40;99.90
4366;DHT22;2196;47.422;9.656;2023-04-25T09:43:36;9.20;99.90
4366;DHT22;2196;47.422;9.656;2023-04-25T09:46:07;9.30;99.90
4366;DHT22;2196;47.422;9.656;2023-04-25T09:48:35;9.60;99.90
4366;DHT22;2196;47.422;9.656;2023-04-25T09:51:06;9.80;99.90
4366;DHT22;2196;47.422;9.656;2023-04-25T09:53:34;10.30;99.90
4366;DHT22;2196;47.422;9.656;2023-04-25T09:56:04;10.60;99.90
4366;DHT22;2196;47.422;9.656;2023-04-25T09:58:33;10.80;99.90
4366;DHT22;2196;47.422;9.656;2023-04-25T10:01:02;11.00;99.90
4366;DHT22;2196;47.422;9.656;2023-04-25T10:03:30;11.10;99.90
4366;DHT22;2196;47.422;9.656;2023-04-25T10:05:59;11.30;99.90
4366;DHT22;2196;47.422;9.656;2023-04-25T10:08:31;11.40;99.90
4366;DHT22;2196;47.422;9.656;2023-04-25T10:11:00;11.30;99.90
4366;DHT22;2196;47.422;9.656;2023-04-25T10:13:29;11.80;99.90
4366;DHT22;2196;47.422;9.656;2023-04-25T10:15:59;12.20;99.90
4366;DHT22;2196;47.422;9.656;2023-04-25T10:18:27;12.30;99.90
4366;DHT22;2196;47.422;9.656;2023-04-25T10:20:55;12.40;99.90
4366;DHT22;2196;47.422;9.656;2023-04-25T10:23:23;12.50;99.90
4366;DHT22;2196;47.422;9.656;2023-04-25T10:25:51;12.50;99.90
4366;DHT22;2196;47.422;9.656;2023-04-25T10:28:19;12.40;99.90
4366;DHT22;2196;47.422;9.656;2023-04-25T10:31:00;12.20;99.90
4366;DHT22;2196;47.422;9.656;2023-04-25T10:33:35;12.10;99.90
4366;DHT22;2196;47.422;9.656;2023-04-25T10:36:10;12.20;99.90
4366;DHT22;2196;47.422;9.656;2023-04-25T10:38:37;11.90;99.90
4366;DHT22;2196;47.422;9.656;2023-04-25T10:41:05;11.70;99.90
4366;DHT22;2196;47.422;9.656;2023-04-25T10:43:38;11.20;99.90
4366;DHT22;2196;47.422;9.656;2023-04-25T10:46:22;11.10;99.90
4366;DHT22;2196;47.422;9.656;2023-04-25T10:48:51;11.00;99.90
4366;DHT22;2196;47.422;9.656;2023-04-25T10:51:20;11.00;99.90
4366;DHT22;2196;47.422;9.656;2023-04-25T10:53:57;11.00;99.90
4366;DHT22;2196;47.422;9.656;2023-04-25T10:56:26;11.00;99.90
4366;DHT22;2196;47.422;9.656;2023-04-25T10:59:04;11.10;99.90
4366;DHT22;2196;47.422;9.656;2023-04-25T11:01:38;11.20;99.90
4366;DHT22;2196;47.422;9.656;2023-04-25T11:04:05;11.30;99.90
4366;DHT22;2196;47.422;9.656;2023-04-25T11:06:42;11.50;99.90
4366;DHT22;2196;47.422;9.656;2023-04-25T11:09:13;11.70;99.90
4366;DHT22;2196;47.422;9.656;2023-04-25T11:11:40;12.00;99.90
4366;DHT22;2196;47.422;9.656;2023-04-25T11:14:07;12.10;99.90
4366;DHT22;2196;47.422;9.656;2023-04-25T11:16:35;12.40;99.90
4366;DHT22;2196;47.422;9.656;2023-04-25T11:19:02;12.50;99.90
4366;DHT22;2196;47.422;9.656;2023-04-25T11:21:31;12.50;99.90
4366;DHT22;2196;47.422;9.656;2023-04-25T11:23:59;12.60;99.90
4366;DHT22;2196;47.422;9.656;2023-04-25T11:26:27;12.50;99.90
4366;DHT22;2196;47.422;9.656;2023-04-25T11:28:57;12.30;99.90
4366;DHT22;2196;47.422;9.656;2023-04-25T11:31:26;12.20;99.90
4366;DHT22;2196;47.422;9.656;2023-04-25T11:33:57;12.10;99.90
4366;DHT22;2196;47.422;9.656;2023-04-25T11:36:24;12.10;99.90
4366;DHT22;2196;47.422;9.656;2023-04-25T11:38:51;12.10;99.90
4366;DHT22;2196;47.422;9.656;2023-04-25T11:41:18;12.10;99.90
4366;DHT22;2196;47.422;9.656;2023-04-25T11:43:45;12.00;99.90
4366;DHT22;2196;47.422;9.656;2023-04-25T11:46:13;11.80;99.90
4366;DHT22;2196;47.422;9.656;2023-04-25T11:48:40;11.60;99.90
4366;DHT22;2196;47.422;9.656;2023-04-25T11:51:09;11.40;99.90
4366;DHT22;2196;47.422;9.656;2023-04-25T11:53:36;11.10;99.90
4366;DHT22;2196;47.422;9.656;2023-04-25T11:56:09;11.20;99.90
4366;DHT22;2196;47.422;9.656;2023-04-25T11:58:54;11.20;99.90
4366;DHT22;2196;47.422;9.656;2023-04-25T12:01:26;11.40;99.90
4366;DHT22;2196;47.422;9.656;2023-04-25T12:03:53;11.60;99.90
4366;DHT22;2196;47.422;9.656;2023-04-25T12:06:25;11.80;99.90
4366;DHT22;2196;47.422;9.656;2023-04-25T12:09:00;12.00;99.90
4366;DHT22;2196;47.422;9.656;2023-04-25T12:11:27;11.90;99.90
4366;DHT22;2196;47.422;9.656;2023-04-25T12:13:54;11.70;99.90
4366;DHT22;2196;47.422;9.656;2023-04-25T12:16:21;11.50;99.90
4366;DHT22;2196;47.422;9.656;2023-04-25T12:18:48;11.30;99.90
4366;DHT22;2196;47.422;9.656;2023-04-25T12:21:14;11.10;99.90
4366;DHT22;2196;47.422;9.656;2023-04-25T12:23:43;11.10;99.90
4366;DHT22;2196;47.422;9.656;2023-04-25T12:26:10;11.10;99.90
4366;DHT22;2196;47.422;9.656;2023-04-25T12:28:37;11.20;99.90
4366;DHT22;2196;47.422;9.656;2023-04-25T12:31:05;11.60;99.90
4366;DHT22;2196;47.422;9.656;2023-04-25T12:33:33;11.90;99.90
4366;DHT22;2196;47.422;9.656;2023-04-25T12:36:01;12.10;99.90
4366;DHT22;2196;47.422;9.656;2023-04-25T12:38:36;12.30;99.90
4366;DHT22;2196;47.422;9.656;2023-04-25T12:41:05;12.30;99.90
4366;DHT22;2196;47.422;9.656;2023-04-25T12:43:32;12.30;99.90
4366;DHT22;2196;47.422;9.656;2023-04-25T12:45:59;12.30;99.90
4366;DHT22;2196;47.422;9.656;2023-04-25T12:48:26;12.00;99.90
4366;DHT22;2196;47.422;9.656;2023-04-25T12:50:53;11.80;99.90
4366;DHT22;2196;47.422;9.656;2023-04-25T12:53:21;11.30;99.90
4366;DHT22;2196;47.422;9.656;2023-04-25T12:55:50;10.60;99.90
4366;DHT22;2196;47.422;9.656;2023-04-25T12:58:18;9.90;99.90
4366;DHT22;2196;47.422;9.656;2023-04-25T13:00:46;9.30;99.90
4366;DHT22;2196;47.422;9.656;2023-04-25T13:03:13;9.10;99.90
4366;DHT22;2196;47.422;9.656;2023-04-25T13:05:41;8.90;99.90
4366;DHT22;2196;47.422;9.656;2023-04-25T13:08:08;8.60;99.90
4366;DHT22;2196;47.422;9.656;2023-04-25T13:10:35;8.40;99.90
4366;DHT22;2196;47.422;9.656;2023-04-25T13:13:03;8.40;99.90
4366;DHT22;2196;47.422;9.656;2023-04-25T13:15:32;8.30;99.90
4366;DHT22;2196;47.422;9.656;2023-04-25T13:17:59;8.20;99.90
4366;DHT22;2196;47.422;9.656;2023-04-25T13:20:26;8.20;99.90
4366;DHT22;2196;47.422;9.656;2023-04-25T13:22:53;8.50;99.90
4366;DHT22;2196;47.422;9.656;2023-04-25T13:25:20;8.70;99.90
4366;DHT22;2196;47.422;9.656;2023-04-25T13:27:48;8.90;99.90
4366;DHT22;2196;47.422;9.656;2023-04-25T13:30:15;8.90;99.90
4366;DHT22;2196;47.422;9.656;2023-04-25T13:32:43;8.80;99.90
4366;DHT22;2196;47.422;9.656;2023-04-25T13:35:12;8.80;99.90
4366;DHT22;2196;47.422;9.656;2023-04-25T13:37:39;8.70;99.90
4366;DHT22;2196;47.422;9.656;2023-04-25T13:40:08;8.80;99.90
4366;DHT22;2196;47.422;9.656;2023-04-25T13:42:36;8.70;99.90
4366;DHT22;2196;47.422;9.656;2023-04-25T13:45:03;8.80;99.90
4366;DHT22;2196;47.422;9.656;2023-04-25T13:47:30;8.80;99.90
4366;DHT22;2196;47.422;9.656;2023-04-25T13:49:59;8.70;99.90
4366;DHT22;2196;47.422;9.656;2023-04-25T13:52:28;8.70;99.90
4366;DHT22;2196;47.422;9.656;2023-04-25T13:54:55;8.60;99.90
4366;DHT22;2196;47.422;9.656;2023-04-25T13:57:24;8.60;99.90
4366;DHT22;2196;47.422;9.656;2023-04-25T13:59:51;8.60;99.90
4366;DHT22;2196;47.422;9.656;2023-04-25T14:02:18;8.60;99.90
4366;DHT22;2196;47.422;9.656;2023-04-25T14:04:45;8.50;99.90
4366;DHT22;2196;47.422;9.656;2023-04-25T14:07:13;8.50;99.90
4366;DHT22;2196;47.422;9.656;2023-04-25T14:09:41;8.50;99.90
4366;DHT22;2196;47.422;9.656;2023-04-25T14:12:08;8.50;99.90
4366;DHT22;2196;47.422;9.656;2023-04-25T14:14:35;8.50;99.90
4366;DHT22;2196;47.422;9.656;2023-04-25T14:17:03;8.50;99.90
4366;DHT22;2196;47.422;9.656;2023-04-25T14:19:30;8.50;99.90
4366;DHT22;2196;47.422;9.656;2023-04-25T14:21:57;8.40;99.90
4366;DHT22;2196;47.422;9.656;2023-04-25T14:24:25;8.30;99.90
4366;DHT22;2196;47.422;9.656;2023-04-25T14:26:52;8.10;99.90
4366;DHT22;2196;47.422;9.656;2023-04-25T14:29:19;8.10;99.90
4366;DHT22;2196;47.422;9.656;2023-04-25T14:31:47;8.40;99.90
4366;DHT22;2196;47.422;9.656;2023-04-25T14:34:14;8.70;99.90
4366;DHT22;2196;47.422;9.656;2023-04-25T14:36:41;9.10;99.90
4366;DHT22;2196;47.422;9.656;2023-04-25T14:39:08;9.50;99.90
4366;DHT22;2196;47.422;9.656;2023-04-25T14:41:37;9.80;99.90
4366;DHT22;2196;47.422;9.656;2023-04-25T14:44:04;10.00;99.90
4366;DHT22;2196;47.422;9.656;2023-04-25T14:46:31;10.00;99.90
4366;DHT22;2196;47.422;9.656;2023-04-25T14:48:58;10.10;99.90
4366;DHT22;2196;47.422;9.656;2023-04-25T14:51:25;9.90;99.90
4366;DHT22;2196;47.422;9.656;2023-04-25T14:53:53;10.00;99.90
4366;DHT22;2196;47.422;9.656;2023-04-25T14:56:19;10.10;99.90
4366;DHT22;2196;47.422;9.656;2023-04-25T14:58:48;10.40;99.90
4366;DHT22;2196;47.422;9.656;2023-04-25T15:01:15;10.40;99.90
4366;DHT22;2196;47.422;9.656;2023-04-25T15:03:42;10.50;99.90
4366;DHT22;2196;47.422;9.656;2023-04-25T15:06:09;10.70;99.90
4366;DHT22;2196;47.422;9.656;2023-04-25T15:08:36;11.00;99.90
4366;DHT22;2196;47.422;9.656;2023-04-25T15:11:03;11.30;99.90
4366;DHT22;2196;47.422;9.656;2023-04-25T15:13:30;11.60;99.90
4366;DHT22;2196;47.422;9.656;2023-04-25T15:15:58;11.60;99.90
4366;DHT22;2196;47.422;9.656;2023-04-25T15:18:25;11.80;99.90
4366;DHT22;2196;47.422;9.656;2023-04-25T15:20:53;11.80;99.90
4366;DHT22;2196;47.422;9.656;2023-04-25T15:23:20;11.80;99.90
4366;DHT22;2196;47.422;9.656;2023-04-25T15:25:50;11.90;99.90
4366;DHT22;2196;47.422;9.656;2023-04-25T15:28:18;12.00;99.90
4366;DHT22;2196;47.422;9.656;2023-04-25T15:30:46;11.90;99.90
4366;DHT22;2196;47.422;9.656;2023-04-25T15:33:15;11.80;99.90
4366;DHT22;2196;47.422;9.656;2023-04-25T15:35:42;11.80;99.90
4366;DHT22;2196;47.422;9.656;2023-04-25T15:38:08;11.70;99.90
4366;DHT22;2196;47.422;9.656;2023-04-25T15:40:37;11.70;99.90
4366;DHT22;2196;47.422;9.656;2023-04-25T15:43:03;11.60;99.90
4366;DHT22;2196;47.422;9.656;2023-04-25T15:45:32;11.80;99.90
4366;DHT22;2196;47.422;9.656;2023-04-25T15:48:00;11.80;99.90
4366;DHT22;2196;47.422;9.656;2023-04-25T15:50:28;11.70;99.90
4366;DHT22;2196;47.422;9.656;2023-04-25T15:52:56;11.60;99.90
4366;DHT22;2196;47.422;9.656;2023-04-25T15:55:23;11.50;99.90
4366;DHT22;2196;47.422;9.656;2023-04-25T15:57:51;11.50;99.90
4366;DHT22;2196;47.422;9.656;2023-04-25T16:00:19;11.40;99.90
4366;DHT22;2196;47.422;9.656;2023-04-25T16:02:47;11.50;99.90
4366;DHT22;2196;47.422;9.656;2023-04-25T16:05:14;11.50;99.90
4366;DHT22;2196;47.422;9.656;2023-04-25T16:07:43;11.40;99.90
4366;DHT22;2196;47.422;9.656;2023-04-25T16:10:12;11.40;99.90
4366;DHT22;2196;47.422;9.656;2023-04-25T16:12:39;11.40;99.90
4366;DHT22;2196;47.422;9.656;2023-04-25T16:15:07;11.30;99.90
4366;DHT22;2196;47.422;9.656;2023-04-25T16:17:34;11.30;99.90